createdAt,value
2023-03-13T00:01:01.008Z,100315.84
2023-03-13T00:03:28.458Z,100311.38
2023-03-13T00:05:58.976Z,100299.03
2023-03-13T00:08:31.604Z,100288.50
2023-03-13T00:10:58.246Z,100281.44
2023-03-13T00:13:25.055Z,100272.75
2023-03-13T00:16:00.064Z,100267.25
2023-03-13T00:18:26.503Z,100269.88
2023-03-13T00:21:07.379Z,100257.28
2023-03-13T00:23:35.427Z,100261.75
2023-03-13T00:26:07.692Z,100252.81
2023-03-13T00:28:35.331Z,100248.13
2023-03-13T00:31:06.281Z,100241.03
2023-03-13T00:33:34.198Z,100241.25
2023-03-13T00:36:03.654Z,100234.19
2023-03-13T00:38:30.661Z,100222.06
2023-03-13T00:41:09.301Z,100201.84
2023-03-13T00:43:36.000Z,100194.19
2023-03-13T00:46:02.662Z,100183.69
2023-03-13T00:48:29.380Z,100176.81
2023-03-13T00:50:56.103Z,100176.59
2023-03-13T00:53:23.037Z,100169.50
2023-03-13T00:56:00.850Z,100166.88
2023-03-13T00:58:29.350Z,100156.34
2023-03-13T01:00:56.714Z,100146.06
2023-03-13T01:03:25.713Z,100147.91
2023-03-13T01:05:57.189Z,100130.31
2023-03-13T01:08:23.792Z,100132.69
2023-03-13T01:10:50.528Z,100120.59
2023-03-13T01:13:17.152Z,100126.38
2023-03-13T01:15:43.783Z,100116.91
2023-03-13T01:18:10.540Z,100102.72
2023-03-13T01:20:38.598Z,100108.78
2023-03-13T01:23:05.093Z,100087.25
2023-03-13T01:25:31.602Z,100088.84
2023-03-13T01:27:58.462Z,100081.75
2023-03-13T01:30:24.954Z,100077.03
2023-03-13T01:32:51.499Z,100071.28
2023-03-13T01:35:19.415Z,100068.16
2023-03-13T01:37:45.915Z,100055.56
2023-03-13T01:40:13.010Z,100057.69
2023-03-13T01:42:53.351Z,100043.81
2023-03-13T01:45:56.497Z,100040.38
2023-03-13T01:48:26.333Z,100019.91
2023-03-13T01:50:55.211Z,100015.72
2023-03-13T01:53:22.700Z,100009.41
2023-03-13T01:55:49.702Z,100004.69
2023-03-13T01:58:16.250Z,100007.63
2023-03-13T02:00:44.391Z,99998.97
2023-03-13T02:03:14.871Z,99991.63
2023-03-13T02:05:42.903Z,99986.91
2023-03-13T02:08:15.312Z,99980.09
2023-03-13T02:10:49.841Z,99971.16
2023-03-13T02:13:17.962Z,99958.53
2023-03-13T02:15:45.230Z,99944.88
2023-03-13T02:18:12.108Z,99939.09
2023-03-13T02:20:40.071Z,99931.75
2023-03-13T02:23:31.390Z,99923.34
2023-03-13T02:25:58.332Z,99920.19
2023-03-13T02:28:28.641Z,99909.41
2023-03-13T02:30:58.610Z,99909.69
2023-03-13T02:33:31.340Z,99908.13
2023-03-13T02:36:00.910Z,99903.16
2023-03-13T02:38:30.799Z,99902.88
2023-03-13T02:41:00.056Z,99900.00
2023-03-13T02:43:31.018Z,99891.56
2023-03-13T02:46:23.415Z,99897.88
2023-03-13T02:48:56.062Z,99890.28
2023-03-13T02:51:28.484Z,99887.66
2023-03-13T02:53:59.060Z,99883.72
2023-03-13T02:56:27.878Z,99875.31
2023-03-13T02:58:54.488Z,99874.53
2023-03-13T03:01:21.038Z,99888.75
2023-03-13T03:03:47.597Z,99889.00
2023-03-13T03:06:14.387Z,99880.84
2023-03-13T03:08:41.650Z,99887.72
2023-03-13T03:11:08.201Z,99886.94
2023-03-13T03:13:34.653Z,99881.66
2023-03-13T03:16:06.955Z,99877.72
2023-03-13T03:18:34.725Z,99885.09
2023-03-13T03:21:01.455Z,99886.13
2023-03-13T03:23:27.952Z,99873.47
2023-03-13T03:25:54.513Z,99874.53
2023-03-13T03:28:21.072Z,99869.28
2023-03-13T03:30:47.548Z,99867.19
2023-03-13T03:33:14.050Z,99849.00
2023-03-13T03:35:40.809Z,99869.28
2023-03-13T03:38:07.270Z,99846.34
2023-03-13T03:40:33.821Z,99848.16
2023-03-13T03:43:00.404Z,99837.09
2023-03-13T03:45:26.952Z,99852.63
2023-03-13T03:47:53.463Z,99843.16
2023-03-13T03:50:20.030Z,99846.56
2023-03-13T03:52:46.612Z,99851.31
2023-03-13T03:55:13.142Z,99838.66
2023-03-13T03:57:39.687Z,99844.72
2023-03-13T04:00:07.850Z,99842.84
2023-03-13T04:02:34.473Z,99839.69
2023-03-13T04:05:01.209Z,99838.09
2023-03-13T04:07:27.719Z,99824.38
2023-03-13T04:09:54.178Z,99823.53
2023-03-13T04:12:20.724Z,99816.94
2023-03-13T04:14:47.243Z,99813.75
2023-03-13T04:17:14.235Z,99824.28
2023-03-13T04:19:40.796Z,99815.31
2023-03-13T04:22:07.296Z,99810.56
2023-03-13T04:24:33.923Z,99805.25
2023-03-13T04:27:01.752Z,99799.97
2023-03-13T04:29:28.369Z,99800.50
2023-03-13T04:31:55.518Z,99791.25
2023-03-13T04:34:22.000Z,99795.19
2023-03-13T04:36:48.499Z,99781.47
2023-03-13T04:39:15.083Z,99782.53
2023-03-13T04:41:41.709Z,99778.31
2023-03-13T04:44:08.381Z,99756.66
2023-03-13T04:46:35.106Z,99766.13
2023-03-13T04:49:01.704Z,99767.72
2023-03-13T04:51:28.274Z,99773.50
2023-03-13T04:53:54.791Z,99761.88
2023-03-13T04:56:41.734Z,99757.63
2023-03-13T04:59:11.959Z,99755.50
2023-03-13T05:01:38.846Z,99755.22
2023-03-13T05:04:05.837Z,99762.59
2023-03-13T05:06:32.332Z,99752.28
2023-03-13T05:08:58.937Z,99767.56
2023-03-13T05:11:25.551Z,99753.03
2023-03-13T05:13:52.115Z,99753.03
2023-03-13T05:16:18.756Z,99755.91
2023-03-13T05:18:45.524Z,99752.22
2023-03-13T05:21:12.130Z,99755.38
2023-03-13T05:23:38.755Z,99726.84
2023-03-13T05:26:05.317Z,99743.72
2023-03-13T05:28:32.181Z,99740.50
2023-03-13T05:30:58.856Z,99751.56
2023-03-13T05:33:25.362Z,99740.50
2023-03-13T05:35:51.918Z,99747.88
2023-03-13T05:38:18.442Z,99745.22
2023-03-13T05:40:45.062Z,99740.44
2023-03-13T05:43:11.913Z,99744.13
2023-03-13T05:45:38.430Z,99748.34
2023-03-13T05:48:05.242Z,99745.69
2023-03-13T05:50:31.767Z,99738.00
2023-03-13T05:52:58.300Z,99734.31
2023-03-13T05:55:24.838Z,99722.94
2023-03-13T05:57:51.394Z,99708.66
2023-03-13T06:00:18.476Z,99716.56
2023-03-13T06:02:44.967Z,99714.44
2023-03-13T06:05:11.569Z,99725.00
2023-03-13T06:07:38.125Z,99721.28
2023-03-13T06:10:05.394Z,99707.78
2023-03-13T06:12:31.908Z,99714.38
2023-03-13T06:14:58.389Z,99718.59
2023-03-13T06:17:25.617Z,99702.75
2023-03-13T06:19:52.179Z,99706.13
2023-03-13T06:22:19.119Z,99701.16
2023-03-13T06:24:46.895Z,99700.06
2023-03-13T06:27:13.400Z,99696.63
2023-03-13T06:29:39.856Z,99704.06
2023-03-13T06:32:06.982Z,99712.78
2023-03-13T06:34:33.665Z,99710.63
2023-03-13T06:37:00.581Z,99704.50
2023-03-13T06:39:27.532Z,99712.66
2023-03-13T06:41:54.097Z,99710.25
2023-03-13T06:44:20.564Z,99690.69
2023-03-13T06:46:47.056Z,99697.78
2023-03-13T06:49:13.565Z,99705.16
2023-03-13T06:51:40.088Z,99701.44
2023-03-13T06:54:06.628Z,99695.59
2023-03-13T06:56:33.191Z,99708.03
2023-03-13T06:59:00.197Z,99710.09
2023-03-13T07:01:26.912Z,99710.34
2023-03-13T07:03:53.666Z,99711.63
2023-03-13T07:06:20.268Z,99718.19
2023-03-13T07:08:47.056Z,99700.19
2023-03-13T07:11:14.874Z,99693.31
2023-03-13T07:13:41.844Z,99710.75
2023-03-13T07:16:11.192Z,99721.84
2023-03-13T07:18:39.399Z,99709.97
2023-03-13T07:21:05.895Z,99713.97
2023-03-13T07:23:34.007Z,99730.34
2023-03-13T07:26:12.878Z,99705.25
2023-03-13T07:28:39.769Z,99714.75
2023-03-13T07:31:11.654Z,99721.91
2023-03-13T07:33:38.268Z,99723.00
2023-03-13T07:36:05.252Z,99725.41
2023-03-13T07:38:31.715Z,99732.06
2023-03-13T07:40:58.805Z,99723.88
2023-03-13T07:43:26.158Z,99728.44
2023-03-13T07:46:04.354Z,99736.41
2023-03-13T07:48:33.664Z,99729.03
2023-03-13T07:51:00.398Z,99737.53
2023-03-13T07:53:28.312Z,99745.72
2023-03-13T07:56:00.282Z,99751.28
2023-03-13T07:58:30.051Z,99733.81
2023-03-13T08:00:56.906Z,99743.56
2023-03-13T08:03:24.251Z,99747.78
2023-03-13T08:06:01.966Z,99739.00
2023-03-13T08:08:29.189Z,99732.38
2023-03-13T08:11:05.324Z,99735.19
2023-03-13T08:13:33.230Z,99747.13
2023-03-13T08:16:11.561Z,99748.19
2023-03-13T08:18:40.593Z,99737.38
2023-03-13T08:21:09.777Z,99730.75
2023-03-13T08:23:36.943Z,99727.09
2023-03-13T08:26:09.438Z,99729.22
2023-03-13T08:28:37.159Z,99721.56
2023-03-13T08:31:09.377Z,99732.44
2023-03-13T08:33:36.340Z,99723.38
2023-03-13T08:36:25.111Z,99698.09
2023-03-13T08:38:57.962Z,99712.63
2023-03-13T08:41:28.510Z,99710.25
2023-03-13T08:43:58.018Z,99692.41
2023-03-13T08:46:24.932Z,99692.59
2023-03-13T08:48:52.993Z,99699.78
2023-03-13T08:51:21.087Z,99688.44
2023-03-13T08:53:47.945Z,99700.56
2023-03-13T08:56:16.860Z,99663.28
2023-03-13T08:58:44.255Z,99671.94
2023-03-13T09:01:13.119Z,99672.44
2023-03-13T09:03:41.026Z,99671.88
2023-03-13T09:06:08.710Z,99683.53
2023-03-13T09:08:35.966Z,99675.88
2023-03-13T09:11:05.391Z,99674.06
2023-03-13T09:13:33.972Z,99689.25
2023-03-13T09:16:08.912Z,99683.41
2023-03-13T09:18:36.046Z,99674.03
2023-03-13T09:21:05.420Z,99666.22
2023-03-13T09:23:31.872Z,99645.53
2023-03-13T09:25:58.543Z,99646.94
2023-03-13T09:28:26.641Z,99654.03
2023-03-13T09:30:54.203Z,99640.38
2023-03-13T09:33:25.355Z,99630.34
2023-03-13T09:35:52.021Z,99616.06
2023-03-13T09:38:20.495Z,99620.28
2023-03-13T09:41:05.391Z,99621.22
2023-03-13T09:43:58.626Z,99633.28
2023-03-13T09:46:44.496Z,99622.50
2023-03-13T09:49:49.160Z,99618.84
2023-03-13T09:52:23.923Z,99625.94
2023-03-13T09:54:59.376Z,99613.34
2023-03-13T09:57:33.448Z,99585.16
2023-03-13T10:00:15.260Z,99578.41
2023-03-13T10:02:47.714Z,99580.88
2023-03-13T10:05:20.574Z,99595.00
2023-03-13T10:07:48.308Z,99598.69
2023-03-13T10:10:25.155Z,99567.13
2023-03-13T10:12:56.235Z,99579.59
2023-03-13T10:15:35.139Z,99543.72
2023-03-13T10:18:12.176Z,99567.13
2023-03-13T10:20:40.721Z,99566.97
2023-03-13T10:23:16.283Z,99553.75
2023-03-13T10:25:42.787Z,99563.16
2023-03-13T10:28:20.141Z,99546.63
2023-03-13T10:30:54.620Z,99558.66
2023-03-13T10:33:27.348Z,99567.25
2023-03-13T10:36:20.434Z,99579.22
2023-03-13T10:38:52.929Z,99568.06
2023-03-13T10:41:28.153Z,99566.44
2023-03-13T10:44:00.198Z,99538.03
2023-03-13T10:46:32.440Z,99569.94
2023-03-13T10:49:04.108Z,99570.22
2023-03-13T10:51:37.125Z,99560.38
2023-03-13T10:54:15.023Z,99566.00
2023-03-13T10:56:42.384Z,99569.63
2023-03-13T10:59:21.322Z,99533.22
2023-03-13T11:01:48.246Z,99554.91
2023-03-13T11:04:32.947Z,99547.16
2023-03-13T11:07:24.964Z,99535.63
2023-03-13T11:10:00.720Z,99536.66
2023-03-13T11:12:27.936Z,99534.41
2023-03-13T11:14:59.567Z,99528.59
2023-03-13T11:17:38.968Z,99504.34
2023-03-13T11:20:22.264Z,99502.13
2023-03-13T11:22:51.416Z,99503.69
2023-03-13T11:25:32.024Z,99513.72
2023-03-13T11:28:05.855Z,99500.75
2023-03-13T11:31:18.254Z,99513.13
2023-03-13T11:34:05.858Z,99483.50
2023-03-13T11:36:38.977Z,99491.34
2023-03-13T11:39:20.722Z,99487.41
2023-03-13T11:41:56.632Z,99500.41
2023-03-13T11:44:39.538Z,99511.03
2023-03-13T11:47:14.697Z,99503.31
2023-03-13T11:49:44.272Z,99493.00
2023-03-13T11:52:42.033Z,99473.03
2023-03-13T11:55:23.335Z,99478.56
2023-03-13T11:58:01.353Z,99474.06
2023-03-13T12:00:30.761Z,99469.84
2023-03-13T12:03:06.568Z,99472.16
2023-03-13T12:05:51.557Z,99474.19
2023-03-13T12:08:30.315Z,99476.84
2023-03-13T12:11:15.924Z,99480.22
2023-03-13T12:13:49.047Z,99474.25
2023-03-13T12:16:21.142Z,99467.28
2023-03-13T12:18:50.579Z,99476.38
2023-03-13T12:21:29.561Z,99462.63
2023-03-13T12:24:11.385Z,99458.06
2023-03-13T12:26:44.869Z,99474.72
2023-03-13T12:29:40.853Z,99473.97
2023-03-13T12:32:18.068Z,99466.22
2023-03-13T12:34:56.267Z,99450.06
2023-03-13T12:37:54.767Z,99461.09
2023-03-13T12:40:32.515Z,99471.75
2023-03-13T12:43:17.593Z,99478.38
2023-03-13T12:45:59.488Z,99472.59
2023-03-13T12:49:13.598Z,99467.53
2023-03-13T12:52:11.475Z,99438.78
2023-03-13T12:54:49.807Z,99460.00
2023-03-13T12:57:22.083Z,99459.34
2023-03-13T12:59:55.471Z,99441.44
2023-03-13T13:02:25.592Z,99437.56
2023-03-13T13:04:54.805Z,99444.00
2023-03-13T13:07:33.325Z,99426.59
2023-03-13T13:10:12.201Z,99433.97
2023-03-13T13:13:13.911Z,99404.53
2023-03-13T13:15:48.319Z,99403.78
2023-03-13T13:18:26.913Z,99398.28
2023-03-13T13:21:02.524Z,99411.47
2023-03-13T13:23:34.777Z,99406.94
2023-03-13T13:26:36.410Z,99395.94
2023-03-13T13:29:11.991Z,99413.78
2023-03-13T13:31:48.198Z,99397.81
2023-03-13T13:34:38.040Z,99394.97
2023-03-13T13:37:17.155Z,99396.88
2023-03-13T13:39:52.547Z,99387.63
2023-03-13T13:42:31.365Z,99402.53
2023-03-13T13:44:59.371Z,99397.38
2023-03-13T13:47:28.188Z,99400.47
2023-03-13T13:49:56.952Z,99398.09
2023-03-13T13:52:34.243Z,99395.78
2023-03-13T13:55:01.251Z,99388.16
2023-03-13T13:57:32.691Z,99399.75
2023-03-13T14:00:19.591Z,99394.31
2023-03-13T14:02:53.943Z,99405.28
2023-03-13T14:05:27.004Z,99389.75
2023-03-13T14:08:19.788Z,99394.25
2023-03-13T14:11:03.635Z,99378.69
2023-03-13T14:13:30.185Z,99396.25
2023-03-13T14:15:56.820Z,99380.31
2023-03-13T14:18:31.319Z,99368.69
2023-03-13T14:20:57.844Z,99386.19
2023-03-13T14:23:45.808Z,99365.00
2023-03-13T14:26:20.132Z,99369.28
2023-03-13T14:28:52.788Z,99359.94
2023-03-13T14:31:37.457Z,99367.19
2023-03-13T14:34:10.159Z,99344.38
2023-03-13T14:37:07.276Z,99357.53
2023-03-13T14:39:45.020Z,99354.41
2023-03-13T14:42:18.927Z,99363.00
2023-03-13T14:44:48.729Z,99340.00
2023-03-13T14:47:25.421Z,99342.66
2023-03-13T14:50:01.283Z,99337.66
2023-03-13T14:52:30.008Z,99341.88
2023-03-13T14:55:25.887Z,99337.81
2023-03-13T14:57:56.814Z,99337.66
2023-03-13T15:00:29.672Z,99339.06
2023-03-13T15:03:16.702Z,99334.22
2023-03-13T15:05:43.953Z,99325.00
2023-03-13T15:08:15.317Z,99317.16
2023-03-13T15:10:42.491Z,99308.88
2023-03-13T15:13:25.768Z,99326.72
2023-03-13T15:15:53.442Z,99323.63
2023-03-13T15:18:29.083Z,99326.63
2023-03-13T15:21:20.056Z,99326.31
2023-03-13T15:23:51.175Z,99322.22
2023-03-13T15:26:17.806Z,99328.81
2023-03-13T15:28:44.359Z,99324.44
2023-03-13T15:31:13.342Z,99321.47
2023-03-13T15:33:40.801Z,99328.69
2023-03-13T15:36:07.932Z,99322.88
2023-03-13T15:38:34.980Z,99329.00
2023-03-13T15:41:01.536Z,99306.91
2023-03-13T15:43:28.097Z,99312.53
2023-03-13T15:45:54.737Z,99307.22
2023-03-13T15:48:31.388Z,99293.00
2023-03-13T15:51:04.043Z,99286.09
2023-03-13T15:53:33.203Z,99282.81
2023-03-13T15:56:02.081Z,99268.16
2023-03-13T15:58:29.824Z,99253.63
2023-03-13T16:00:57.353Z,99258.00
2023-03-13T16:03:26.499Z,99254.25
2023-03-13T16:05:54.637Z,99245.63
2023-03-13T16:08:35.304Z,99246.41
2023-03-13T16:11:03.721Z,99243.91
2023-03-13T16:13:30.858Z,99246.09
2023-03-13T16:15:58.412Z,99240.47
2023-03-13T16:18:25.549Z,99248.91
2023-03-13T16:20:52.884Z,99235.31
2023-03-13T16:23:19.432Z,99248.72
2023-03-13T16:25:47.032Z,99230.13
2023-03-13T16:28:14.660Z,99232.94
2023-03-13T16:30:43.512Z,99231.50
2023-03-13T16:33:11.360Z,99230.88
2023-03-13T16:35:38.610Z,99228.16
2023-03-13T16:38:08.335Z,99226.72
2023-03-13T16:40:35.432Z,99226.38
2023-03-13T16:43:02.302Z,99225.00
2023-03-13T16:45:28.836Z,99223.06
2023-03-13T16:47:55.482Z,99215.56
2023-03-13T16:50:29.605Z,99221.28
2023-03-13T16:52:56.145Z,99223.59
2023-03-13T16:55:30.410Z,99224.34
2023-03-13T16:58:00.268Z,99231.47
2023-03-13T17:00:29.554Z,99229.84
2023-03-13T17:02:57.481Z,99218.25
2023-03-13T17:05:24.885Z,99223.50
2023-03-13T17:07:52.224Z,99226.69
2023-03-13T17:10:22.639Z,99230.38
2023-03-13T17:12:50.056Z,99239.00
2023-03-13T17:15:17.758Z,99249.78
2023-03-13T17:17:51.204Z,99236.47
2023-03-13T17:20:21.098Z,99243.59
2023-03-13T17:22:47.732Z,99249.38
2023-03-13T17:25:14.526Z,99247.13
2023-03-13T17:27:42.858Z,99248.78
2023-03-13T17:30:27.582Z,99261.13
2023-03-13T17:32:54.484Z,99256.28
2023-03-13T17:35:21.559Z,99259.31
2023-03-13T17:37:48.259Z,99259.78
2023-03-13T17:40:21.106Z,99264.00
2023-03-13T17:42:48.391Z,99262.81
2023-03-13T17:45:16.065Z,99259.47
2023-03-13T17:47:42.815Z,99255.84
2023-03-13T17:50:21.920Z,99251.41
2023-03-13T17:52:48.579Z,99245.44
2023-03-13T17:55:15.333Z,99234.47
2023-03-13T17:57:42.446Z,99243.53
2023-03-13T18:00:20.945Z,99246.84
2023-03-13T18:02:47.798Z,99237.91
2023-03-13T18:05:14.467Z,99240.63
2023-03-13T18:07:44.176Z,99240.50
2023-03-13T18:10:22.896Z,99251.03
2023-03-13T18:12:50.832Z,99251.88
2023-03-13T18:15:18.204Z,99253.31
2023-03-13T18:17:44.904Z,99242.91
2023-03-13T18:20:18.414Z,99239.00
2023-03-13T18:22:45.641Z,99223.53
2023-03-13T18:25:12.835Z,99228.38
2023-03-13T18:27:40.019Z,99228.22
2023-03-13T18:30:15.705Z,99210.09
2023-03-13T18:32:42.449Z,99202.28
2023-03-13T18:35:09.654Z,99204.97
2023-03-13T18:37:36.219Z,99207.91
2023-03-13T18:40:02.829Z,99207.13
2023-03-13T18:42:29.342Z,99197.63
2023-03-13T18:44:55.839Z,99194.56
2023-03-13T18:47:27.337Z,99185.34
2023-03-13T18:49:53.877Z,99179.50
2023-03-13T18:52:20.437Z,99171.59
2023-03-13T18:54:46.957Z,99177.72
2023-03-13T18:57:16.094Z,99179.63
2023-03-13T18:59:43.715Z,99178.06
2023-03-13T19:02:18.249Z,99167.31
2023-03-13T19:04:45.806Z,99172.38
2023-03-13T19:07:19.013Z,99169.59
2023-03-13T19:09:47.081Z,99169.59
2023-03-13T19:12:15.649Z,99160.94
2023-03-13T19:14:42.636Z,99163.66
2023-03-13T19:17:20.291Z,99159.69
2023-03-13T19:19:46.764Z,99151.56
2023-03-13T19:22:13.725Z,99155.03
2023-03-13T19:24:40.255Z,99157.16
2023-03-13T19:27:06.812Z,99164.09
2023-03-13T19:29:36.496Z,99163.06
2023-03-13T19:32:07.565Z,99163.06
2023-03-13T19:34:34.223Z,99156.25
2023-03-13T19:37:00.853Z,99160.50
2023-03-13T19:39:27.487Z,99155.50
2023-03-13T19:41:54.366Z,99150.50
2023-03-13T19:44:21.667Z,99147.94
2023-03-13T19:46:48.819Z,99145.63
2023-03-13T19:49:18.056Z,99146.22
2023-03-13T19:51:44.910Z,99148.16
2023-03-13T19:54:12.394Z,99144.78
2023-03-13T19:56:41.672Z,99151.66
2023-03-13T19:59:15.224Z,99148.81
2023-03-13T20:01:41.879Z,99140.41
2023-03-13T20:04:08.406Z,99137.81
2023-03-13T20:06:35.779Z,99140.50
2023-03-13T20:09:05.024Z,99135.00
2023-03-13T20:11:31.944Z,99131.88
2023-03-13T20:13:59.482Z,99130.88
2023-03-13T20:16:27.758Z,99129.06
2023-03-13T20:18:58.225Z,99138.56
2023-03-13T20:21:31.859Z,99130.72
2023-03-13T20:23:59.387Z,99129.16
2023-03-13T20:26:26.990Z,99127.38
2023-03-13T20:28:55.324Z,99125.56
2023-03-13T20:31:25.284Z,99128.19
2023-03-13T20:33:52.300Z,99122.94
2023-03-13T20:36:20.799Z,99114.56
2023-03-13T20:38:47.915Z,99108.28
2023-03-13T20:41:16.212Z,99103.03
2023-03-13T20:43:43.055Z,99107.00
2023-03-13T20:46:09.648Z,99104.91
2023-03-13T20:48:39.246Z,99105.19
2023-03-13T20:51:07.898Z,99099.16
2023-03-13T20:53:39.220Z,99100.72
2023-03-13T20:56:07.493Z,99102.84
2023-03-13T20:58:35.188Z,99109.94
2023-03-13T21:01:02.568Z,99110.41
2023-03-13T21:03:29.359Z,99120.13
2023-03-13T21:05:55.915Z,99116.41
2023-03-13T21:08:22.783Z,99108.72
2023-03-13T21:10:49.383Z,99108.16
2023-03-13T21:13:15.955Z,99108.94
2023-03-13T21:15:42.491Z,99106.03
2023-03-13T21:18:09.066Z,99100.03
2023-03-13T21:20:38.338Z,99099.84
2023-03-13T21:23:04.914Z,99107.22
2023-03-13T21:25:31.653Z,99101.44
2023-03-13T21:27:58.171Z,99093.03
2023-03-13T21:30:24.789Z,99099.09
2023-03-13T21:32:51.315Z,99103.56
2023-03-13T21:35:18.118Z,99095.38
2023-03-13T21:37:44.769Z,99097.19
2023-03-13T21:40:12.695Z,99086.88
2023-03-13T21:42:39.507Z,99082.63
2023-03-13T21:45:07.204Z,99074.72
2023-03-13T21:47:36.971Z,99065.72
2023-03-13T21:50:06.500Z,99064.59
2023-03-13T21:52:38.275Z,99068.75
2023-03-13T21:55:09.981Z,99051.34
2023-03-13T21:57:36.599Z,99039.94
2023-03-13T22:00:06.209Z,99043.59
2023-03-13T22:02:32.740Z,99039.34
2023-03-13T22:04:59.271Z,99031.41
2023-03-13T22:07:25.823Z,99020.03
2023-03-13T22:09:52.340Z,99023.88
2023-03-13T22:12:18.913Z,99027.25
2023-03-13T22:14:45.628Z,99018.25
2023-03-13T22:17:16.842Z,99019.34
2023-03-13T22:19:43.574Z,98998.34
2023-03-13T22:22:10.224Z,99007.59
2023-03-13T22:24:36.799Z,98999.75
2023-03-13T22:27:03.527Z,99000.31
2023-03-13T22:29:31.935Z,98990.84
2023-03-13T22:31:58.618Z,99005.84
2023-03-13T22:34:25.259Z,99010.84
2023-03-13T22:36:52.045Z,99003.94
2023-03-13T22:39:18.708Z,98995.94
2023-03-13T22:41:45.480Z,99002.38
2023-03-13T22:44:12.056Z,99008.38
2023-03-13T22:46:38.492Z,98994.38
2023-03-13T22:49:05.003Z,98991.44
2023-03-13T22:51:31.493Z,98992.22
2023-03-13T22:53:58.013Z,98992.72
2023-03-13T22:56:26.517Z,98990.09
2023-03-13T22:58:54.150Z,98990.38
2023-03-13T23:01:20.786Z,98975.63
2023-03-13T23:03:47.393Z,98992.50
2023-03-13T23:06:19.729Z,98987.75
2023-03-13T23:08:46.652Z,98985.13
2023-03-13T23:11:13.482Z,98989.38
2023-03-13T23:13:40.024Z,98973.56
2023-03-13T23:16:08.460Z,98982.53
2023-03-13T23:18:35.529Z,98979.69
2023-03-13T23:21:08.376Z,98981.81
2023-03-13T23:23:35.543Z,98975.28
2023-03-13T23:26:03.553Z,98966.59
2023-03-13T23:28:30.191Z,98968.38
2023-03-13T23:30:56.836Z,98998.06
2023-03-13T23:33:23.354Z,98996.66
2023-03-13T23:35:49.842Z,98975.94
2023-03-13T23:38:18.422Z,98979.41
2023-03-13T23:40:45.125Z,98974.75
2023-03-13T23:43:11.712Z,98973.34
2023-03-13T23:45:38.309Z,98969.78
2023-03-13T23:48:04.958Z,98972.81
2023-03-13T23:50:31.412Z,98976.09
2023-03-13T23:52:57.921Z,98975.91
2023-03-13T23:55:24.552Z,98972.50
2023-03-13T23:57:51.057Z,98968.81
